Time;durP1;ratioP1;P1;durP2;ratioP2;P2;SDS_P1;SDS_P2;PMS_P1;PMS_P2;Temp;Humidity;BMP_temperature;BMP_pressure;BME280_temperature;BME280_humidity;BME280_pressure;Samples;Min_cycle;Max_cycle;Signal;HPM_P1;HPM_P2
2023/10/26 00:00:33;;;;;;;89.30;32.03;;;;;;;10.67;100.00;99296.19;4903140;29;20047;-89
2023/10/26 00:02:59;;;;;;;111.22;33.25;;;;;;;10.62;100.00;99298.56;4901120;29;20154;-89
2023/10/26 00:05:24;;;;;;;107.22;32.88;;;;;;;10.65;100.00;99303.72;4897522;29;20036;-90
2023/10/26 00:07:50;;;;;;;85.15;31.58;;;;;;;10.64;100.00;99316.53;4878553;29;20118;-89
2023/10/26 00:10:17;;;;;;;77.93;30.58;;;;;;;10.64;100.00;99321.13;4902921;29;20028;-90
2023/10/26 00:12:44;;;;;;;77.80;31.48;;;;;;;10.53;100.00;99324.16;4916524;29;20060;-91
2023/10/26 00:15:11;;;;;;;81.00;30.42;;;;;;;10.48;100.00;99320.00;4887117;29;20048;-91
2023/10/26 00:17:39;;;;;;;87.70;31.15;;;;;;;10.50;100.00;99327.22;4886336;29;20502;-91
2023/10/26 00:20:08;;;;;;;77.70;31.60;;;;;;;10.51;100.00;99326.16;4901638;29;20159;-91
2023/10/26 00:22:34;;;;;;;90.97;30.70;;;;;;;10.52;100.00;99328.75;4893316;29;20039;-90
2023/10/26 00:24:59;;;;;;;65.72;29.33;;;;;;;10.53;100.00;99332.38;4885616;29;20031;-91
2023/10/26 00:27:25;;;;;;;81.07;28.95;;;;;;;10.59;100.00;99328.97;4918370;29;20024;-91
2023/10/26 00:29:50;;;;;;;74.88;29.17;;;;;;;10.51;100.00;99339.84;4885460;29;20089;-90
2023/10/26 00:32:16;;;;;;;88.45;29.67;;;;;;;10.55;100.00;99335.81;4870641;29;20031;-90
2023/10/26 00:34:42;;;;;;;73.60;29.17;;;;;;;10.53;100.00;99329.63;4885123;29;20099;-90
2023/10/26 00:37:08;;;;;;;64.40;27.80;;;;;;;10.59;100.00;99331.72;4882946;29;20060;-90
2023/10/26 00:39:34;;;;;;;68.28;28.42;;;;;;;10.65;100.00;99337.41;4898686;29;20027;-90
2023/10/26 00:42:00;;;;;;;64.28;27.02;;;;;;;10.65;100.00;99337.41;4885850;29;20027;-90
2023/10/26 00:44:25;;;;;;;65.47;26.83;;;;;;;10.59;100.00;99339.91;4917107;29;20063;-90
2023/10/26 00:46:53;;;;;;;71.03;28.50;;;;;;;10.69;100.00;99351.66;4900572;29;20500;-89
2023/10/26 00:49:19;;;;;;;75.30;29.55;;;;;;;10.64;100.00;99343.03;4916995;29;20076;-88
2023/10/26 00:52:07;;;;;;;76.15;28.83;;;;;;;10.59;100.00;99351.75;4899095;29;20178;-88
2023/10/26 00:54:34;;;;;;;70.43;29.35;;;;;;;10.57;100.00;99345.56;4907004;29;20499;-88
2023/10/26 00:57:02;;;;;;;76.93;29.05;;;;;;;10.64;100.00;99357.59;4899873;29;20092;-88
2023/10/26 00:59:29;;;;;;;77.68;29.23;;;;;;;10.69;100.00;99364.47;4889386;29;20036;-87
2023/10/26 01:01:55;;;;;;;74.75;29.83;;;;;;;10.68;100.00;99357.28;4905067;29;20032;-88
2023/10/26 01:04:21;;;;;;;93.05;28.98;;;;;;;10.63;100.00;99369.56;4882022;29;20036;-88
2023/10/26 01:06:49;;;;;;;83.78;28.58;;;;;;;10.65;100.00;99378.47;4899077;29;20051;-87
2023/10/26 01:09:15;;;;;;;90.82;30.30;;;;;;;10.71;100.00;99381.56;4880291;29;20032;-88
2023/10/26 01:11:41;;;;;;;71.75;26.25;;;;;;;10.58;100.00;99390.22;4883335;29;20040;-87
2023/10/26 01:14:08;;;;;;;66.22;26.58;;;;;;;10.54;100.00;99384.19;4898557;29;20032;-87
2023/10/26 01:16:34;;;;;;;51.95;24.27;;;;;;;10.41;100.00;99390.06;4906009;29;20487;-87
2023/10/26 01:19:01;;;;;;;58.35;24.83;;;;;;;10.38;100.00;99390.38;4898529;29;20032;-88
2023/10/26 01:21:30;;;;;;;60.40;24.48;;;;;;;10.35;100.00;99389.84;4898218;29;20032;-86
2023/10/26 01:23:56;;;;;;;52.03;23.20;;;;;;;10.36;100.00;99394.28;4897938;29;20043;-87
2023/10/26 01:26:23;;;;;;;61.45;24.52;;;;;;;10.39;100.00;99400.28;4897339;29;20032;-87
2023/10/26 01:28:49;;;;;;;65.40;24.27;;;;;;;10.40;100.00;99392.97;4867409;29;20035;-88
2023/10/26 01:31:16;;;;;;;57.53;23.65;;;;;;;10.43;100.00;99385.31;4934777;29;20040;-88
2023/10/26 01:33:42;;;;;;;55.97;23.85;;;;;;;10.40;100.00;99384.75;4901697;29;20178;-87
2023/10/26 01:36:08;;;;;;;58.58;22.30;;;;;;;10.43;100.00;99388.03;4919971;29;20071;-88
2023/10/26 01:38:34;;;;;;;51.53;22.90;;;;;;;10.35;100.00;99390.69;4908842;29;20031;-89
2023/10/26 01:41:00;;;;;;;57.83;23.88;;;;;;;10.48;100.00;99393.91;4909134;29;20042;-89
2023/10/26 01:43:26;;;;;;;52.78;22.67;;;;;;;10.43;100.00;99393.50;4909103;29;20032;-88
2023/10/26 01:45:52;;;;;;;63.15;24.50;;;;;;;10.41;100.00;99390.06;4887183;29;20032;-88
2023/10/26 01:48:18;;;;;;;60.22;23.77;;;;;;;10.42;100.00;99385.47;4900815;29;20114;-88
2023/10/26 01:50:43;;;;;;;57.22;23.95;;;;;;;10.43;100.00;99388.03;4901167;29;20044;-87
2023/10/26 01:53:09;;;;;;;67.07;24.23;;;;;;;10.28;100.00;99376.75;4886077;29;20047;-87
2023/10/26 01:55:34;;;;;;;74.82;24.23;;;;;;;10.36;100.00;99370.50;4900879;29;20126;-88
2023/10/26 01:58:00;;;;;;;63.55;23.67;;;;;;;10.20;100.00;99364.84;4901689;29;20074;-87
2023/10/26 02:00:25;;;;;;;58.50;22.30;;;;;;;10.10;100.00;99382.22;4903405;29;20127;-90
2023/10/26 02:02:52;;;;;;;82.00;25.35;;;;;;;10.07;100.00;99373.47;4919784;29;20051;-90
2023/10/26 02:05:18;;;;;;;133.70;24.88;;;;;;;10.06;100.00;99378.06;4902691;29;20483;-89
2023/10/26 02:07:43;;;;;;;61.95;23.20;;;;;;;9.88;100.00;99380.75;4915550;29;20122;-89
2023/10/26 02:10:13;;;;;;;56.38;22.65;;;;;;;9.86;100.00;99382.81;4934482;29;20039;-89
2023/10/26 02:12:40;;;;;;;54.85;23.10;;;;;;;9.84;100.00;99382.09;4903365;29;20164;-90
2023/10/26 02:15:06;;;;;;;102.03;25.98;;;;;;;9.94;100.00;99377.44;4888246;29;20039;-89
2023/10/26 02:17:32;;;;;;;65.28;23.05;;;;;;;9.83;100.00;99376.78;4923013;29;20094;-90
2023/10/26 02:19:57;;;;;;;68.05;23.15;;;;;;;9.73;100.00;99380.44;4926247;29;20032;-89
2023/10/26 02:22:22;;;;;;;77.60;24.80;;;;;;;9.71;100.00;99377.00;4910242;29;20028;-89
2023/10/26 02:24:48;;;;;;;63.95;22.85;;;;;;;9.59;100.00;99383.66;4919643;29;20040;-90
2023/10/26 02:27:14;;;;;;;71.80;23.65;;;;;;;9.62;100.00;99382.50;4907123;29;20031;-90
2023/10/26 02:29:39;;;;;;;63.00;22.83;;;;;;;9.59;100.00;99386.41;4922412;29;20063;-90
2023/10/26 02:32:07;;;;;;;132.23;24.55;;;;;;;9.56;100.00;58458.38;4895809;29;20397;-89
2023/10/26 02:34:34;;;;;;;102.28;24.52;;;;;;;9.55;100.00;99390.47;4890589;29;20086;-90
2023/10/26 02:37:00;;;;;;;98.03;25.40;;;;;;;9.51;100.00;99399.94;4908599;29;20031;-90
2023/10/26 02:39:27;;;;;;;139.77;26.48;;;;;;;9.52;100.00;99396.22;4926029;29;20036;-91
2023/10/26 02:41:52;;;;;;;105.70;23.90;;;;;;;9.50;100.00;99395.53;4907763;29;20111;-90
2023/10/26 02:44:18;;;;;;;125.32;25.48;;;;;;;9.46;100.00;99396.81;4913207;29;20034;-91
2023/10/26 02:46:44;;;;;;;68.10;24.80;;;;;;;9.32;100.00;99392.72;4953703;29;20031;-91
2023/10/26 02:49:10;;;;;;;100.55;26.10;;;;;;;9.49;100.00;99399.25;4937380;29;20035;-90
2023/10/26 02:51:35;;;;;;;79.00;23.73;;;;;;;9.35;100.00;99396.00;4896884;29;20629;-90
2023/10/26 02:54:01;;;;;;;80.82;23.60;;;;;;;9.25;100.00;99399.78;4922618;29;20032;-90
2023/10/26 02:56:26;;;;;;;75.57;23.23;;;;;;;9.26;100.00;99396.91;4938244;29;20058;-89
2023/10/26 02:58:52;;;;;;;80.47;24.60;;;;;;;9.33;100.00;99388.97;4906675;29;20032;-91
2023/10/26 03:01:17;;;;;;;97.07;25.85;;;;;;;9.37;100.00;99395.88;4906599;29;20043;-90
2023/10/26 03:03:43;;;;;;;69.07;25.65;;;;;;;9.26;100.00;99391.44;4891005;29;20032;-90
2023/10/26 03:06:09;;;;;;;78.60;26.25;;;;;;;9.28;100.00;99400.34;4890803;29;20506;-90
2023/10/26 03:08:34;;;;;;;112.78;27.27;;;;;;;9.33;100.00;99391.69;4921257;29;20517;-86
2023/10/26 03:10:59;;;;;;;84.72;26.48;;;;;;;9.28;100.00;99389.44;4904733;29;20419;-88
2023/10/26 03:13:25;;;;;;;84.68;25.40;;;;;;;9.28;100.00;99388.56;4920618;29;20047;-87
2023/10/26 03:15:50;;;;;;;72.60;25.83;;;;;;;9.23;100.00;99389.03;4900456;29;20040;-88
2023/10/26 03:18:16;;;;;;;74.78;25.98;;;;;;;9.25;100.00;99384.28;4926391;29;20410;-88
2023/10/26 03:20:41;;;;;;;113.20;26.88;;;;;;;9.35;100.00;99382.34;4919487;29;20750;-89
2023/10/26 03:23:06;;;;;;;88.85;26.00;;;;;;;9.30;100.00;99384.69;4889575;29;20028;-88
2023/10/26 03:25:32;;;;;;;114.40;26.95;;;;;;;9.25;100.00;99375.19;4890082;29;20036;-88
2023/10/26 03:27:58;;;;;;;111.05;26.13;;;;;;;9.20;100.00;99381.97;4905332;29;20137;-87
2023/10/26 03:30:24;;;;;;;78.53;25.00;;;;;;;8.98;100.00;99382.34;4920427;29;20055;-87
2023/10/26 03:32:49;;;;;;;86.60;26.23;;;;;;;8.91;100.00;99379.34;4888419;29;20035;-87
2023/10/26 03:35:15;;;;;;;80.78;27.27;;;;;;;8.90;100.00;99384.94;4903709;29;20477;-87
2023/10/26 03:37:40;;;;;;;80.57;26.48;;;;;;;8.86;100.00;99389.84;4888422;29;20039;-87
2023/10/26 03:40:06;;;;;;;87.63;26.42;;;;;;;8.80;100.00;99387.69;4890067;29;20039;-88
2023/10/26 03:42:32;;;;;;;80.35;26.40;;;;;;;8.87;100.00;99385.22;4911000;29;20387;-88
2023/10/26 03:44:58;;;;;;;113.47;26.90;;;;;;;8.93;100.00;99382.78;4920189;29;20115;-88
2023/10/26 03:47:24;;;;;;;109.85;28.27;;;;;;;8.80;100.00;99383.09;4903832;29;20049;-88
2023/10/26 03:49:52;;;;;;;106.93;27.52;;;;;;;8.90;100.00;99380.34;4920240;29;20457;-88
2023/10/26 03:52:21;;;;;;;154.18;28.10;;;;;;;8.79;100.00;99380.53;4936545;29;20051;-88
2023/10/26 03:54:47;;;;;;;138.13;26.80;;;;;;;8.76;100.00;99380.81;4917153;29;20052;-88
2023/10/26 03:57:14;;;;;;;237.98;30.90;;;;;;;8.84;100.00;99389.13;4932837;29;20039;-88
2023/10/26 03:59:40;;;;;;;253.23;31.13;;;;;;;8.77;100.00;99380.69;4889124;29;20027;-88
2023/10/26 04:02:05;;;;;;;259.23;31.60;;;;;;;8.66;100.00;99375.38;4903559;29;20036;-88
2023/10/26 04:04:31;;;;;;;83.10;26.85;;;;;;;8.64;100.00;99366.47;4917418;29;20106;-86
2023/10/26 04:06:56;;;;;;;196.90;30.27;;;;;;;8.71;100.00;99359.44;4918101;29;20122;-86
2023/10/26 04:09:22;;;;;;;182.50;28.05;;;;;;;8.63;100.00;99375.66;4887025;29;20091;-87
2023/10/26 04:11:49;;;;;;;127.05;27.58;;;;;;;8.40;100.00;99372.34;4918310;29;20036;-86
2023/10/26 04:14:14;;;;;;;122.47;28.35;;;;;;;8.34;100.00;99381.97;4933824;29;20042;-86
2023/10/26 04:16:40;;;;;;;158.77;28.48;;;;;;;8.44;100.00;99374.69;4932975;29;20032;-87
2023/10/26 04:19:06;;;;;;;113.05;26.55;;;;;;;8.42;100.00;99378.53;4885886;29;20494;-87
2023/10/26 04:21:34;;;;;;;180.30;28.80;;;;;;;8.51;100.00;99365.91;4918187;29;20043;-88
2023/10/26 04:24:00;;;;;;;103.90;26.20;;;;;;;8.37;100.00;99361.72;4924607;29;20107;-88
2023/10/26 04:26:29;;;;;;;368.70;31.40;;;;;;;8.37;100.00;99362.59;4917273;29;20115;-85
2023/10/26 04:28:55;;;;;;;172.45;26.92;;;;;;;8.35;100.00;99361.03;4901324;29;20051;-86
2023/10/26 04:31:20;;;;;;;90.20;24.45;;;;;;;8.14;100.00;99355.72;4916859;29;20078;-87
2023/10/26 04:33:45;;;;;;;101.70;25.55;;;;;;;8.04;100.00;99358.44;4918263;29;20031;-85
2023/10/26 04:36:11;;;;;;;90.05;23.55;;;;;;;7.95;100.00;99364.72;4917057;29;20043;-88
2023/10/26 04:38:37;;;;;;;80.60;24.55;;;;;;;7.91;100.00;99373.19;4916871;29;20027;-86
2023/10/26 04:41:02;;;;;;;100.07;25.73;;;;;;;7.96;100.00;99366.47;4913388;29;20035;-83
2023/10/26 04:43:28;;;;;;;77.88;24.60;;;;;;;7.98;100.00;99375.34;4900820;29;20031;-84
2023/10/26 04:45:53;;;;;;;237.90;27.38;;;;;;;8.06;100.00;99364.59;4917053;29;20101;-85
2023/10/26 04:48:18;;;;;;;86.55;25.27;;;;;;;7.85;100.00;99370.16;4918104;29;20035;-84
2023/10/26 04:50:46;;;;;;;96.88;24.20;;;;;;;7.72;100.00;99374.03;4915885;29;20398;-85
2023/10/26 04:53:12;;;;;;;336.98;29.75;;;;;;;8.03;100.00;99356.69;4900799;29;20031;-84
2023/10/26 04:55:37;;;;;;;286.23;29.35;;;;;;;8.12;100.00;99366.75;4900397;29;20050;-85
2023/10/26 04:58:04;;;;;;;105.60;25.55;;;;;;;8.00;100.00;99363.31;4886837;29;20513;-84
2023/10/26 05:00:30;;;;;;;91.43;24.63;;;;;;;7.75;100.00;99359.25;4914313;29;20071;-84
2023/10/26 05:02:55;;;;;;;89.30;23.02;;;;;;;7.70;100.00;99356.94;4930105;29;20101;-83
2023/10/26 05:05:21;;;;;;;85.05;22.75;;;;;;;7.75;100.00;99358.41;4931012;29;21282;-83
2023/10/26 05:07:46;;;;;;;86.53;24.83;;;;;;;7.79;100.00;99349.81;4914999;29;20046;-83
2023/10/26 05:10:12;;;;;;;90.32;24.25;;;;;;;7.68;100.00;99361.69;4899005;29;20035;-84
2023/10/26 05:12:38;;;;;;;167.10;25.92;;;;;;;7.79;100.00;99363.44;4930642;29;20086;-84
2023/10/26 05:15:04;;;;;;;124.80;23.55;;;;;;;7.72;100.00;99363.13;4921405;29;20027;-84
2023/10/26 05:17:31;;;;;;;96.55;22.23;;;;;;;7.68;100.00;99369.84;4930138;29;20414;-86
2023/10/26 05:19:57;;;;;;;217.52;26.65;;;;;;;7.65;100.00;99364.66;4900050;29;20047;-86
2023/10/26 05:22:23;;;;;;;229.48;26.92;;;;;;;7.65;100.00;99363.81;4932266;29;20050;-85
2023/10/26 05:24:49;;;;;;;362.48;30.77;;;;;;;7.65;100.00;99361.94;4919398;29;20031;-85
2023/10/26 05:27:14;;;;;;;264.02;29.08;;;;;;;7.65;100.00;99358.38;4917461;29;20028;-86
2023/10/26 05:29:40;;;;;;;357.38;29.55;;;;;;;7.65;100.00;99352.94;4888761;29;20056;-92
2023/10/26 05:32:05;;;;;;;411.40;32.50;;;;;;;7.57;100.00;99356.34;4909476;29;20926;-92
2023/10/26 05:34:31;;;;;;;409.58;30.30;;;;;;;7.56;100.00;99351.91;4940270;29;20087;-91
2023/10/26 05:36:56;;;;;;;281.05;28.23;;;;;;;7.44;100.00;99355.72;4888533;29;20490;-92
2023/10/26 05:39:22;;;;;;;383.00;31.20;;;;;;;7.57;100.00;99359.06;4922796;29;20038;-91
2023/10/26 05:41:47;;;;;;;337.65;29.42;;;;;;;7.68;100.00;99361.69;4921164;29;20063;-91
2023/10/26 05:44:13;;;;;;;189.32;25.70;;;;;;;7.58;100.00;99362.66;4887265;29;20498;-92
2023/10/26 05:46:38;;;;;;;132.05;24.45;;;;;;;7.52;100.00;99356.75;4918025;29;20032;-92
2023/10/26 05:49:04;;;;;;;142.13;22.15;;;;;;;7.41;100.00;99354.16;4916014;29;20491;-91
2023/10/26 05:51:31;;;;;;;158.27;22.23;;;;;;;7.43;100.00;99346.72;4922464;29;20040;-93
2023/10/26 05:53:56;;;;;;;312.20;26.75;;;;;;;7.54;100.00;99343.00;4933242;29;20038;-92
2023/10/26 05:56:23;;;;;;;362.08;29.75;;;;;;;7.55;100.00;99342.84;4907540;29;20035;-93
2023/10/26 05:58:52;;;;;;;323.70;29.20;;;;;;;7.52;100.00;99339.56;4936441;29;20036;-90
2023/10/26 06:01:18;;;;;;;318.08;26.40;;;;;;;7.29;100.00;99347.94;4940240;29;20087;-89
2023/10/26 06:03:44;;;;;;;243.07;24.20;;;;;;;7.39;100.00;99342.53;4923112;29;20028;-90
2023/10/26 06:06:09;;;;;;;192.07;24.10;;;;;;;7.38;100.00;99340.81;4922562;29;20079;-91
2023/10/26 06:08:35;;;;;;;85.10;19.50;;;;;;;7.28;100.00;99338.06;4925472;29;20114;-92
2023/10/26 06:11:02;;;;;;;348.00;26.10;;;;;;;7.22;100.00;99341.34;4927733;29;20034;-95
2023/10/26 06:13:27;;;;;;;377.15;26.00;;;;;;;7.09;100.00;99338.00;4939921;29;20036;-93
2023/10/26 06:15:53;;;;;;;404.02;26.30;;;;;;;7.07;100.00;99338.13;4924123;29;20071;-93
2023/10/26 06:18:18;;;;;;;459.95;28.10;;;;;;;7.04;100.00;99349.28;4923673;29;20039;-88
2023/10/26 06:20:59;;;;;;;604.85;32.35;;;;;;;7.18;100.00;99342.59;4926436;29;20071;-91
2023/10/26 06:23:24;;;;;;;445.00;26.35;;;;;;;7.04;100.00;99343.84;4945256;29;20020;-89
2023/10/26 06:25:59;;;;;;;154.68;19.00;;;;;;;7.06;100.00;99352.72;4945559;29;20083;-88
2023/10/26 06:28:27;;;;;;;321.25;25.05;;;;;;;7.11;100.00;99355.91;4940759;29;20028;-90
2023/10/26 06:30:54;;;;;;;273.98;23.48;;;;;;;7.01;100.00;99344.13;4950699;29;20051;-90
2023/10/26 06:33:21;;;;;;;612.78;32.03;;;;;;;7.16;100.00;99348.19;4931034;29;20050;-89
2023/10/26 06:35:47;;;;;;;341.00;25.95;;;;;;;6.97;100.00;99340.81;4946892;29;20035;-89
2023/10/26 06:38:13;;;;;;;372.33;26.08;;;;;;;7.07;100.00;99346.28;4907425;29;20046;-93
2023/10/26 06:40:39;;;;;;;623.33;30.00;;;;;;;7.02;100.00;99343.13;4903659;29;20035;-92
2023/10/26 06:43:04;;;;;;;235.35;19.77;;;;;;;7.02;100.00;58458.38;4904549;29;20024;-93
2023/10/26 06:45:30;;;;;;;165.05;17.85;;;;;;;6.90;100.00;99357.81;4936913;29;20533;-87
2023/10/26 06:47:56;;;;;;;181.38;18.70;;;;;;;6.81;100.00;99354.03;4900822;29;20126;-87
2023/10/26 06:50:23;;;;;;;231.45;23.67;;;;;;;-147.94;100.00;58458.38;4936874;29;20139;-89
2023/10/26 06:52:48;;;;;;;270.70;24.73;;;;;;;7.21;100.00;99357.81;4900835;29;20119;-88
2023/10/26 06:55:17;;;;;;;277.60;23.02;;;;;;;7.31;100.00;99359.59;4921010;29;20063;-87
2023/10/26 06:57:42;;;;;;;393.75;27.52;;;;;;;7.38;100.00;99356.28;4920039;29;20123;-88
2023/10/26 07:00:09;;;;;;;192.77;23.38;;;;;;;7.43;100.00;99354.88;4919207;29;20035;-87
2023/10/26 07:02:36;;;;;;;300.48;23.83;;;;;;;7.48;100.00;99355.31;4936671;29;20035;-86
2023/10/26 07:05:04;;;;;;;140.85;20.83;;;;;;;7.69;100.00;99360.69;4917102;29;20494;-86
2023/10/26 07:07:33;;;;;;;204.38;23.33;;;;;;;7.75;100.00;99353.78;4888398;29;20055;-87
2023/10/26 07:09:58;;;;;;;145.50;21.73;;;;;;;7.78;100.00;130069.13;4904928;29;20379;-90
2023/10/26 07:12:24;;;;;;;172.32;22.00;;;;;;;7.79;100.00;99338.91;4924582;29;20046;-88
2023/10/26 07:14:54;;;;;;;134.93;19.45;;;;;;;7.78;100.00;99337.16;4919923;29;20032;-88
2023/10/26 07:17:24;;;;;;;353.27;28.83;;;;;;;7.88;100.00;99329.84;4901164;29;20040;-92
2023/10/26 07:20:02;;;;;;;400.33;28.80;;;;;;;7.94;100.00;99339.34;4936067;29;20028;-93
2023/10/26 07:22:28;;;;;;;493.25;30.45;;;;;;;7.98;100.00;99329.88;4890727;29;20024;-91
2023/10/26 07:24:53;;;;;;;549.78;31.40;;;;;;;8.00;100.00;99336.06;4906162;29;20134;-90
2023/10/26 07:27:19;;;;;;;393.42;27.35;;;;;;;8.02;100.00;99328.59;4889365;29;20048;-96
2023/10/26 07:29:46;;;;;;;688.25;38.72;;;;;;;8.16;100.00;99319.09;4936917;29;20063;-94
2023/10/26 07:32:12;;;;;;;561.35;40.85;;;;;;;8.08;100.00;99325.31;4921620;29;20047;-92
2023/10/26 07:34:43;;;;;;;396.05;29.60;;;;;;;7.90;100.00;99325.16;4937690;29;20035;-91
2023/10/26 07:37:08;;;;;;;502.63;35.35;;;;;;;7.92;100.00;99322.28;4916712;29;20047;-91
2023/10/26 07:39:35;;;;;;;553.95;32.90;;;;;;;8.13;100.00;99329.44;4914707;29;20032;-93
2023/10/26 07:42:01;;;;;;;588.47;33.38;;;;;;;8.15;100.00;99325.59;4906731;29;20020;-93
2023/10/26 07:44:26;;;;;;;557.72;33.55;;;;;;;8.22;100.00;99317.69;4922905;29;20039;-93
2023/10/26 07:46:52;;;;;;;235.10;27.00;;;;;;;8.27;100.00;99315.38;4936145;29;20055;-92
2023/10/26 07:49:18;;;;;;;527.03;31.63;;;;;;;8.21;100.00;99324.13;4940760;29;20028;-85
2023/10/26 07:51:45;;;;;;;548.20;32.13;;;;;;;8.01;100.00;99328.72;4916983;29;20454;-83
2023/10/26 07:54:12;;;;;;;224.18;25.38;;;;;;;8.07;100.00;99350.81;4909462;29;20046;-86
2023/10/26 07:56:39;;;;;;;652.33;35.00;;;;;;;8.21;100.00;99348.66;4903140;29;20042;-92
2023/10/26 07:59:04;;;;;;;289.58;26.33;;;;;;;8.34;100.00;99348.38;4928951;29;20055;-86
2023/10/26 08:01:30;;;;;;;253.40;25.88;;;;;;;8.33;100.00;99350.25;4904924;29;20051;-87
2023/10/26 08:03:56;;;;;;;183.38;24.23;;;;;;;8.42;100.00;99357.56;4901493;29;20059;-84
2023/10/26 08:06:25;;;;;;;210.73;23.67;;;;;;;8.23;100.00;99358.44;4901813;29;20039;-84
2023/10/26 08:08:53;;;;;;;290.52;26.75;;;;;;;8.26;100.00;99368.19;4915582;29;20031;-85
2023/10/26 08:11:19;;;;;;;503.67;29.85;;;;;;;8.23;100.00;99366.63;4904557;29;20074;-86
2023/10/26 08:13:44;;;;;;;185.35;24.13;;;;;;;8.36;100.00;99366.34;4933148;29;20519;-86
2023/10/26 08:16:11;;;;;;;219.80;24.98;;;;;;;8.38;100.00;99366.16;4939116;29;20180;-87
2023/10/26 08:18:38;;;;;;;253.38;25.42;;;;;;;8.65;100.00;99373.66;4917250;29;20458;-84
2023/10/26 08:21:05;;;;;;;399.90;27.98;;;;;;;8.68;100.00;99376.09;4916768;29;20093;-83
2023/10/26 08:23:32;;;;;;;502.67;31.38;;;;;;;8.79;100.00;99358.69;4927679;29;20028;-83
2023/10/26 08:26:09;;;;;;;485.58;32.72;;;;;;;8.85;100.00;99369.00;4927981;29;20545;-82
2023/10/26 08:28:35;;;;;;;305.83;27.73;;;;;;;8.85;100.00;99365.41;4929168;29;20059;-84
2023/10/26 08:31:03;;;;;;;385.30;27.25;;;;;;;8.79;100.00;99377.81;4916392;29;20071;-83
2023/10/26 08:33:35;;;;;;;192.07;26.30;;;;;;;8.81;100.00;99384.81;4901720;29;20124;-85
2023/10/26 08:36:01;;;;;;;176.07;23.77;;;;;;;8.86;100.00;99392.56;4902214;29;20031;-88
2023/10/26 08:38:26;;;;;;;302.75;26.52;;;;;;;8.81;100.00;99386.69;4917648;29;20067;-84
2023/10/26 08:40:53;;;;;;;190.98;23.17;;;;;;;8.79;100.00;99392.28;4901029;29;20106;-85
2023/10/26 08:43:22;;;;;;;223.88;23.27;;;;;;;8.79;100.00;99384.09;4900958;29;20475;-86
2023/10/26 08:45:48;;;;;;;370.25;25.95;;;;;;;8.90;100.00;99372.16;4918065;29;20027;-86
2023/10/26 08:48:20;;;;;;;588.50;33.17;;;;;;;8.82;100.00;99388.41;4918515;29;20102;-87
2023/10/26 08:50:48;;;;;;;557.95;29.25;;;;;;;8.73;100.00;99378.38;4900852;29;20126;-85
2023/10/26 08:53:14;;;;;;;388.15;26.02;;;;;;;8.94;100.00;99378.19;4933739;29;20502;-85
2023/10/26 08:55:41;;;;;;;532.85;29.65;;;;;;;8.91;100.00;99378.47;4917093;29;20613;-84
2023/10/26 08:58:08;;;;;;;394.90;27.15;;;;;;;8.97;100.00;99386.09;4903979;29;20490;-86
2023/10/26 09:00:40;;;;;;;379.23;26.95;;;;;;;9.23;100.00;99389.03;4934599;29;20047;-86
2023/10/26 09:03:06;;;;;;;450.60;30.13;;;;;;;9.05;100.00;99388.94;4909972;29;20378;-86
2023/10/26 09:05:33;;;;;;;456.25;27.13;;;;;;;9.09;100.00;99375.84;4917940;29;20042;-86
2023/10/26 09:08:14;;;;;;;571.47;33.15;;;;;;;9.21;100.00;99363.72;4918462;29;20046;-86
2023/10/26 09:10:39;;;;;;;497.50;30.40;;;;;;;9.45;100.00;99365.06;4916947;29;20122;-86
2023/10/26 09:13:06;;;;;;;249.25;26.50;;;;;;;9.22;100.00;99370.06;4899078;29;20402;-86
2023/10/26 09:15:47;;;;;;;219.07;25.95;;;;;;;9.28;100.00;99353.94;4907568;29;20039;-86
2023/10/26 09:18:15;;;;;;;331.58;26.63;;;;;;;9.42;100.00;99370.81;4932796;29;20023;-85
2023/10/26 09:20:40;;;;;;;189.82;24.95;;;;;;;9.55;100.00;99371.34;4932834;29;20034;-85
2023/10/26 09:23:08;;;;;;;279.10;26.52;;;;;;;9.64;100.00;99358.63;4901148;29;20519;-85
2023/10/26 09:25:33;;;;;;;151.07;23.98;;;;;;;9.75;100.00;99345.59;4914806;29;20028;-85
2023/10/26 09:28:02;;;;;;;191.90;24.77;;;;;;;9.69;100.00;99350.81;4904448;29;20090;-84
2023/10/26 09:30:31;;;;;;;234.45;24.73;;;;;;;9.74;100.00;99346.63;4903880;29;20059;-85
2023/10/26 09:32:57;;;;;;;221.40;24.35;;;;;;;9.57;100.00;99345.59;4918522;29;20123;-83
2023/10/26 09:35:30;;;;;;;173.13;23.42;;;;;;;9.70;100.00;99358.00;4916917;29;20029;-85
2023/10/26 09:37:57;;;;;;;201.70;25.20;;;;;;;9.64;100.00;99354.03;4936752;29;20039;-85
2023/10/26 09:40:23;;;;;;;142.23;22.48;;;;;;;9.66;100.00;99351.16;4935626;29;20043;-85
2023/10/26 09:42:49;;;;;;;97.20;23.02;;;;;;;9.67;100.00;99353.69;4935690;29;20110;-83
2023/10/26 09:45:18;;;;;;;151.32;25.48;;;;;;;9.84;100.00;99351.16;4919565;29;20124;-82
2023/10/26 09:47:47;;;;;;;192.80;26.95;;;;;;;10.03;100.00;99348.28;4918667;29;20050;-83
2023/10/26 09:50:16;;;;;;;110.88;25.90;;;;;;;10.00;100.00;99350.47;4934417;29;20027;-83
2023/10/26 09:52:43;;;;;;;118.32;26.27;;;;;;;9.88;100.00;99363.50;4937660;29;20694;-86
2023/10/26 09:55:10;;;;;;;133.52;25.83;;;;;;;9.87;100.00;99364.50;4936834;29;20027;-84
2023/10/26 09:57:44;;;;;;;169.25;25.95;;;;;;;9.82;100.00;99361.38;4935790;29;20494;-85
2023/10/26 10:00:10;;;;;;;106.15;26.38;;;;;;;9.98;100.00;99349.78;4937312;29;20031;-86
2023/10/26 10:02:36;;;;;;;102.00;24.40;;;;;;;10.08;100.00;99350.56;4920382;29;20023;-86
2023/10/26 10:05:01;;;;;;;218.48;28.90;;;;;;;10.02;100.00;99352.06;4923427;29;20481;-86
2023/10/26 10:07:45;;;;;;;103.03;25.52;;;;;;;10.09;100.00;99364.06;4906206;29;20063;-86
2023/10/26 10:10:13;;;;;;;119.07;25.55;;;;;;;9.96;100.00;99358.13;4937669;29;20528;-86
2023/10/26 10:12:40;;;;;;;102.10;25.05;;;;;;;9.82;100.00;99355.91;4935767;29;20438;-86
2023/10/26 10:15:08;;;;;;;88.93;25.95;;;;;;;9.91;100.00;99355.84;4936180;29;20047;-86
2023/10/26 10:17:43;;;;;;;79.30;25.52;;;;;;;9.91;100.00;99347.66;4904897;29;20035;-86
2023/10/26 10:20:17;;;;;;;119.45;26.70;;;;;;;10.10;100.00;99343.94;4920809;29;20213;-86
2023/10/26 10:22:53;;;;;;;149.65;26.65;;;;;;;10.07;100.00;99340.66;4937263;29;20482;-84
2023/10/26 10:28:00;;;;;;;148.85;27.02;;;;;;;9.92;100.00;99332.13;5125013;27;20408;-88
2023/10/26 10:30:45;;;;;;;77.70;24.17;;;;;;;9.72;100.00;99329.53;5089790;28;20047;-87
2023/10/26 10:33:25;;;;;;;83.80;25.42;;;;;;;9.82;100.00;99325.84;5093598;28;20031;-90
2023/10/26 10:35:53;;;;;;;68.13;22.80;;;;;;;9.81;100.00;99322.28;5086296;28;20032;-89
2023/10/26 10:38:20;;;;;;;94.25;26.70;;;;;;;9.85;100.00;99311.88;5104541;28;20084;-86
2023/10/26 10:41:07;;;;;;;72.53;23.80;;;;;;;10.07;100.00;99305.94;5086364;28;20030;-89
2023/10/26 10:43:43;;;;;;;83.68;27.10;;;;;;;10.14;100.00;99308.06;5090396;28;20085;-89
2023/10/26 10:46:27;;;;;;;136.55;30.80;;;;;;;10.02;100.00;99318.34;5113485;28;20032;-92
2023/10/26 10:48:58;;;;;;;116.05;29.52;;;;;;;10.11;100.00;99322.91;5108512;28;20495;-90
2023/10/26 10:51:32;;;;;;;93.07;27.48;;;;;;;9.98;100.00;99317.81;5104757;28;20127;-90
2023/10/26 10:53:58;;;;;;;82.18;27.60;;;;;;;9.98;100.00;99312.34;5106054;28;20032;-92
2023/10/26 10:56:25;;;;;;;63.70;26.15;;;;;;;10.15;100.00;99318.84;5090712;28;20038;-86
2023/10/26 10:58:54;;;;;;;69.00;25.65;;;;;;;10.26;100.00;99304.06;5107320;28;20058;-87
2023/10/26 11:01:20;;;;;;;67.80;25.98;;;;;;;10.24;100.00;99298.75;5104886;28;20019;-88
2023/10/26 11:03:47;;;;;;;68.65;25.38;;;;;;;10.35;100.00;99296.84;5090218;28;20040;-88
2023/10/26 11:06:17;;;;;;;72.97;24.80;;;;;;;10.43;100.00;99285.94;5072966;28;20028;-88
2023/10/26 11:08:44;;;;;;;77.40;27.63;;;;;;;10.46;100.00;99294.69;5091158;28;20040;-89
2023/10/26 11:11:26;;;;;;;63.80;27.55;;;;;;;10.44;100.00;99287.66;5090443;28;20031;-88